Kazime Ana — TCPT8 — position and weather

sailwx.info

Track history (hours):
 
Tides and Currents Weather Stations Pressure Air Temp Water Temp Dewpoint Dewpoint Depression Visibility Wind Speed Wind Dir Waves Ship Positions

Kazime Ana

Last reported at 2016-Feb-03 16:21 UTC. Time now 2016-Feb-09 11:46 UTC.
Position N 40°52' E 029°13'.

Length 115 m; draft 3.8 m.

Type: Cargo ship. MMSI: 271001019.

Date/timePositionNaut miles runAvg speedWind from/ knotsBaromVisibWave heightAir tempDewpointWater temp
2016-Feb-03 16:21N 40°52' E 029°13'0 0.0
2016-Feb-03 15:33N 40°52' E 029°13'0 0.0
2016-Feb-03 14:33N 40°52' E 029°13'0 0.0
2016-Feb-03 13:33N 40°52' E 029°13'0 0.0
2016-Feb-03 12:33N 40°52' E 029°13'0 0.0
2016-Feb-03 11:33N 40°52' E 029°13'0 0.0
2016-Feb-03 10:33N 40°52' E 029°13'0 0.0
2016-Feb-03 09:33N 40°52' E 029°13'0 0.0
2016-Feb-03 08:33N 40°52' E 029°13'0 0.0
2016-Feb-03 07:33N 40°52' E 029°13'0 0.0
2016-Feb-03 06:33N 40°52' E 029°13'0 0.0
2016-Feb-03 05:33N 40°52' E 029°13'0 0.0
2016-Feb-03 04:32N 40°52' E 029°13'0 0.0
2016-Feb-03 03:32N 40°52' E 029°13'0 0.0
2016-Feb-03 02:33N 40°52' E 029°13'0 0.0
2016-Feb-03 01:33N 40°52' E 029°13'0 0.0
2016-Feb-03 00:33N 40°52' E 029°13'0 0.0
2016-Feb-02 23:33N 40°52' E 029°13'4 4.3
2016-Feb-02 22:33N 40°47' E 029°15'10 9.9
2016-Feb-02 21:33N 40°45' E 029°27'3 0.1
2016-Feb-01 18:25N 40°46' E 029°31'8 8.5
2016-Feb-01 17:32N 40°44' E 029°22'10 9.7
2016-Feb-01 16:32N 40°42' E 029°09'1010.1
2016-Feb-01 15:33N 40°41' E 028°56'  
Track history (hours):
 
Tides and Currents Weather Stations Pressure Air Temp Water Temp Dewpoint Dewpoint Depression Visibility Wind Speed Wind Dir Waves Ship Positions

Kazime Ana

Last reported at 2016-Feb-03 16:21 UTC. Time now 2016-Feb-09 11:46 UTC.
Position N 40°52' E 029°13'.

Length 115 m; draft 3.8 m.

Type: Cargo ship. MMSI: 271001019.

Date/timePositionNaut miles runAvg speedWind from/ knotsBaromVisibWave heightAir tempDewpointWater temp
2016-Feb-03 16:21N 40°52' E 029°13'0 0.0
2016-Feb-03 15:33N 40°52' E 029°13'0 0.0
2016-Feb-03 14:33N 40°52' E 029°13'0 0.0
2016-Feb-03 13:33N 40°52' E 029°13'0 0.0
2016-Feb-03 12:33N 40°52' E 029°13'0 0.0
2016-Feb-03 11:33N 40°52' E 029°13'0 0.0
2016-Feb-03 10:33N 40°52' E 029°13'0 0.0
2016-Feb-03 09:33N 40°52' E 029°13'0 0.0
2016-Feb-03 08:33N 40°52' E 029°13'0 0.0
2016-Feb-03 07:33N 40°52' E 029°13'0 0.0
2016-Feb-03 06:33N 40°52' E 029°13'0 0.0
2016-Feb-03 05:33N 40°52' E 029°13'0 0.0
2016-Feb-03 04:32N 40°52' E 029°13'0 0.0
2016-Feb-03 03:32N 40°52' E 029°13'0 0.0
2016-Feb-03 02:33N 40°52' E 029°13'0 0.0
2016-Feb-03 01:33N 40°52' E 029°13'0 0.0
2016-Feb-03 00:33N 40°52' E 029°13'0 0.0
2016-Feb-02 23:33N 40°52' E 029°13'4 4.3
2016-Feb-02 22:33N 40°47' E 029°15'10 9.9
2016-Feb-02 21:33N 40°45' E 029°27'3 0.1
2016-Feb-01 18:25N 40°46' E 029°31'8 8.5
2016-Feb-01 17:32N 40°44' E 029°22'10 9.7
2016-Feb-01 16:32N 40°42' E 029°09'1010.1
2016-Feb-01 15:33N 40°41' E 028°56'  

Dump ship's entire track history